Woodrow, Arkansas
Current Conditions -  °F | °C
As of 4:35 PM on Saturday 25 Oct 2014 (Local Time) from KBVX Reporting Station
Clear Clear  
Wind Chill: 84°   Ceiling: Unl
Heat Index: 86°   Visibility: 10mi
Dew Point: 64°   Wind: 0mph
Humidity: 51%   Direction: NA
Pressure: 30"   Gusts: NA
Location:  35.6931°N, 92.1518°W
Report Text: KBVX 252135Z AUTO 00000KT 10SM CLR 29/18 A3000 RMK AO1
Loading
Personal Weather Stations






























Interactive Weather Map
Tropical Storm Tracking
New forecast layout! Learn more

10-Day Weather Forecast

Advertisements
Track Severe Weather on mobile